KGWO/GWO METAR and TAF weather

Enter ICAO airport designator
Station Type Date Time Source
KGWO METAR 2019/10/15 07:53 UTC NOAA

KGWO 150753Z AUTO 00000KT 10SM -RA FEW023 SCT065 18/ A3002 RMK AO2 RAE16B47 SLP164 P0001 T0183 $


Station Type Date Time Source
KGWO Decoded METAR 2019/10/15 07:53 UTC NOAA

GREENWOOD-LEFLORE AIRPORT, MS, United States (KGWO) 33-30N 090-05W 44M
Oct 15, 2019 - 03:53 AM EDT / 2019.10.15 0753 UTC
Wind: Calm:0
Visibility: 10 mile(s):0
Sky conditions: partly cloudy
Weather: light rain
Precipitation last hour: 0.01 inches
Temperature: 64 F (18 C)
Pressure (altimeter): 30.02 in. Hg (1016 hPa)
ob: KGWO 150753Z AUTO 00000KT 10SM -RA FEW023 SCT065 18/ A3002 RMK AO2 RAE16B47 SLP164 P0001 T0183
cycle: 8

Station Type Date Time Source
KGWO TAF 2019/10/15 06:42 UTC NOAA

TAF KGWO 150540Z 1506/1606 14004KT P6SM -RA OVC015
FM150900 13005KT 4SM RA BR OVC010
FM151200 13005KT 2SM -TSRA BR OVC007CB
FM151600 14009KT 4SM -RA BR OVC007
FM152100 13004KT 6SM RA VCTS BKN007 OVC025CB

Example: see airport list